Time;durP1;ratioP1;P1;durP2;ratioP2;P2;SDS_P1;SDS_P2;PMS_P1;PMS_P2;Temp;Humidity;BMP_temperature;BMP_pressure;BME280_temperature;BME280_humidity;BME280_pressure;Samples;Min_cycle;Max_cycle;Signal;HPM_P1;HPM_P2
2023/01/25 00:00:27;;;;;;;24.67;15.85;;;6.70;81.70;;;;;;5072741;28;20024;-11
2023/01/25 00:02:53;;;;;;;26.08;15.80;;;6.70;81.80;;;;;;5072461;28;20032;-12
2023/01/25 00:05:19;;;;;;;25.58;15.75;;;6.70;81.80;;;;;;5071293;28;20396;-12
2023/01/25 00:07:45;;;;;;;27.77;17.02;;;6.70;81.80;;;;;;5072812;28;20028;-12
2023/01/25 00:10:11;;;;;;;24.75;14.43;;;6.70;81.90;;;;;;5071244;28;20502;-12
2023/01/25 00:12:37;;;;;;;25.85;16.00;;;6.70;81.90;;;;;;5072506;28;20085;-12
2023/01/25 00:15:03;;;;;;;29.92;16.45;;;6.60;82.00;;;;;;5072189;28;20041;-13
2023/01/25 00:17:29;;;;;;;25.80;16.23;;;6.60;82.00;;;;;;5072367;28;20017;-12
2023/01/25 00:19:55;;;;;;;23.92;15.18;;;6.70;82.60;;;;;;5072683;28;20040;-12
2023/01/25 00:22:21;;;;;;;18.48;12.18;;;6.60;82.20;;;;;;5072715;28;20025;-12
2023/01/25 00:24:47;;;;;;;22.27;13.50;;;6.60;82.00;;;;;;5072230;28;20021;-12
2023/01/25 00:27:13;;;;;;;20.33;13.05;;;6.70;82.00;;;;;;5072284;28;20021;-11
2023/01/25 00:29:39;;;;;;;18.85;12.68;;;6.70;82.00;;;;;;5072710;28;20029;-11
2023/01/25 00:32:32;;;;;;;20.63;13.68;;;6.70;82.00;;;;;;5072772;28;20458;-11
2023/01/25 00:34:58;;;;;;;23.90;13.80;;;6.60;81.80;;;;;;5075899;28;20084;-12
2023/01/25 00:37:29;;;;;;;19.58;13.48;;;6.60;81.80;;;;;;5076326;28;20059;-12
2023/01/25 00:39:55;;;;;;;20.40;12.90;;;6.60;81.80;;;;;;5076797;28;20029;-11
2023/01/25 00:42:21;;;;;;;21.20;13.98;;;6.60;81.70;;;;;;5077026;28;20032;-12
2023/01/25 00:44:48;;;;;;;23.52;15.25;;;6.60;81.70;;;;;;5076108;28;20029;-12
2023/01/25 00:47:15;;;;;;;20.70;14.02;;;6.70;81.90;;;;;;5076626;28;20039;-12
2023/01/25 00:49:42;;;;;;;22.23;14.20;;;6.70;81.70;;;;;;5076392;28;20059;-11
2023/01/25 00:52:08;;;;;;;22.73;14.70;;;6.70;81.80;;;;;;5076032;28;20021;-11
2023/01/25 00:54:34;;;;;;;21.17;13.27;;;6.60;81.90;;;;;;5076281;28;20039;-13
2023/01/25 00:57:00;;;;;;;21.20;14.80;;;6.60;81.90;;;;;;5074449;28;20029;-12
2023/01/25 00:59:26;;;;;;;19.88;12.60;;;6.50;82.00;;;;;;5076434;28;20035;-11
2023/01/25 01:01:53;;;;;;;18.65;11.98;;;6.50;82.10;;;;;;5074449;28;20028;-12
2023/01/25 01:04:23;;;;;;;20.83;13.35;;;6.50;82.20;;;;;;5076105;28;20102;-11
2023/01/25 01:06:52;;;;;;;19.50;13.10;;;6.50;82.20;;;;;;5075580;28;20124;-13
2023/01/25 01:09:19;;;;;;;20.25;14.35;;;6.50;82.20;;;;;;5076133;28;20025;-12
2023/01/25 01:11:45;;;;;;;21.27;13.38;;;6.40;82.10;;;;;;5075458;28;20036;-12
2023/01/25 01:14:12;;;;;;;18.63;12.57;;;6.40;82.20;;;;;;5075596;28;20043;-12
2023/01/25 01:16:37;;;;;;;18.55;11.35;;;6.40;82.20;;;;;;5075638;28;20472;-11
2023/01/25 01:19:04;;;;;;;21.67;12.80;;;6.30;82.20;;;;;;5075265;28;20052;-12
2023/01/25 01:21:30;;;;;;;18.35;11.73;;;6.30;82.10;;;;;;5075756;28;20103;-12
2023/01/25 01:23:56;;;;;;;17.35;11.45;;;6.20;82.20;;;;;;5075672;28;20103;-11
2023/01/25 01:26:22;;;;;;;21.63;13.82;;;6.20;82.30;;;;;;5075432;28;20025;-12
2023/01/25 01:28:48;;;;;;;22.42;14.30;;;6.20;82.20;;;;;;5075426;28;20438;-12
2023/01/25 01:31:20;;;;;;;23.92;14.23;;;6.00;82.20;;;;;;5075399;28;20020;-12
2023/01/25 01:33:51;;;;;;;22.80;14.20;;;6.00;82.30;;;;;;5074950;28;20032;-11
2023/01/25 01:36:19;;;;;;;23.83;13.82;;;5.90;82.30;;;;;;5075122;28;20021;-11
2023/01/25 01:38:45;;;;;;;23.00;14.93;;;5.90;82.40;;;;;;5075403;28;20072;-12
2023/01/25 01:41:12;;;;;;;24.17;15.18;;;5.80;82.60;;;;;;5073928;28;20103;-11
2023/01/25 01:43:38;;;;;;;18.30;12.13;;;5.70;82.70;;;;;;5075093;28;20472;-11
2023/01/25 01:46:12;;;;;;;16.60;11.35;;;5.70;82.90;;;;;;5075205;28;20032;-12
2023/01/25 01:48:46;;;;;;;21.83;14.07;;;5.70;83.00;;;;;;5075302;28;20112;-11
2023/01/25 01:51:15;;;;;;;23.90;14.45;;;5.70;83.00;;;;;;5075560;28;20028;-12
2023/01/25 01:53:47;;;;;;;23.85;15.48;;;5.60;83.00;;;;;;5075343;28;20387;-12
2023/01/25 01:56:19;;;;;;;16.42;10.93;;;5.60;82.90;;;;;;5073449;28;20029;-12
2023/01/25 01:58:47;;;;;;;19.80;13.10;;;5.50;83.00;;;;;;5075006;28;20086;-12
2023/01/25 02:01:14;;;;;;;19.88;11.68;;;5.50;83.10;;;;;;5074640;28;20490;-12
2023/01/25 02:03:41;;;;;;;15.48;10.43;;;5.40;83.10;;;;;;5074799;28;20039;-12
2023/01/25 02:06:34;;;;;;;20.90;12.80;;;5.40;83.10;;;;;;5074975;28;20111;-13
2023/01/25 02:09:00;;;;;;;20.52;13.75;;;5.40;83.30;;;;;;5068578;28;20017;-12
2023/01/25 02:11:28;;;;;;;22.35;13.18;;;5.30;83.20;;;;;;5074456;28;20034;-12
2023/01/25 02:13:57;;;;;;;17.45;10.95;;;5.20;83.10;;;;;;5074804;28;20075;-12
2023/01/25 02:16:26;;;;;;;15.77;10.27;;;5.10;83.10;;;;;;5074428;28;20036;-12
2023/01/25 02:18:55;;;;;;;20.10;13.18;;;5.20;83.30;;;;;;5074562;28;20135;-12
2023/01/25 02:21:23;;;;;;;20.83;12.85;;;5.10;83.30;;;;;;5074392;28;20024;-12
2023/01/25 02:23:51;;;;;;;14.93;10.30;;;5.00;83.20;;;;;;5074554;28;20028;-12
2023/01/25 02:26:18;;;;;;;21.17;12.18;;;5.00;83.20;;;;;;5074169;28;20037;-12
2023/01/25 02:29:05;;;;;;;21.83;13.30;;;4.90;83.30;;;;;;5074291;28;20024;-12
2023/01/25 02:31:31;;;;;;;21.58;12.88;;;4.90;83.40;;;;;;5074583;28;20025;-12
2023/01/25 02:33:57;;;;;;;18.95;12.82;;;4.80;83.30;;;;;;5073954;28;20242;-12
2023/01/25 02:36:32;;;;;;;19.95;13.35;;;4.70;83.30;;;;;;5074100;28;20032;-11
2023/01/25 02:39:00;;;;;;;22.92;14.13;;;4.70;83.40;;;;;;5073929;28;20381;-11
2023/01/25 02:41:32;;;;;;;19.75;13.52;;;4.60;83.40;;;;;;5073967;28;20495;-12
2023/01/25 02:44:20;;;;;;;21.35;14.02;;;4.50;83.50;;;;;;5073955;28;20028;-12
2023/01/25 02:46:46;;;;;;;22.58;14.88;;;4.50;83.60;;;;;;5074115;28;20157;-11
2023/01/25 02:49:13;;;;;;;21.50;13.50;;;4.40;83.70;;;;;;5074163;28;20028;-12
2023/01/25 02:51:42;;;;;;;24.15;15.55;;;4.40;83.70;;;;;;5073972;28;20499;-13
2023/01/25 02:54:10;;;;;;;23.65;13.93;;;4.40;83.70;;;;;;5073777;28;20158;-11
2023/01/25 02:56:36;;;;;;;22.50;14.18;;;4.40;83.80;;;;;;5072910;28;20426;-12
2023/01/25 02:59:04;;;;;;;23.20;14.13;;;4.40;84.00;;;;;;5073887;28;20040;-11
2023/01/25 03:01:36;;;;;;;23.90;13.82;;;4.30;84.00;;;;;;5073509;28;20035;-11
2023/01/25 03:04:04;;;;;;;21.25;13.65;;;4.30;83.90;;;;;;5073829;28;20024;-10
2023/01/25 03:06:30;;;;;;;24.77;14.32;;;4.30;83.90;;;;;;5073527;28;20047;-10
2023/01/25 03:08:56;;;;;;;17.98;11.15;;;4.30;84.00;;;;;;5073327;28;20039;-13
2023/01/25 03:11:22;;;;;;;21.42;13.13;;;4.30;84.10;;;;;;5072009;28;20016;-11
2023/01/25 03:13:47;;;;;;;21.35;13.55;;;4.30;84.10;;;;;;5073557;28;20028;-11
2023/01/25 03:16:14;;;;;;;21.65;14.45;;;4.20;84.10;;;;;;5073273;28;20017;-11
2023/01/25 03:18:40;;;;;;;20.73;12.98;;;4.20;84.10;;;;;;5073156;28;20032;-11
2023/01/25 03:21:16;;;;;;;21.75;13.88;;;4.20;84.20;;;;;;5073459;28;20032;-9
2023/01/25 03:23:43;;;;;;;19.80;12.25;;;4.10;84.10;;;;;;5073446;28;20051;-10
2023/01/25 03:26:12;;;;;;;21.13;12.43;;;4.10;84.00;;;;;;5073081;28;20065;-11
2023/01/25 03:28:40;;;;;;;16.65;9.02;;;4.10;84.10;;;;;;5073037;28;20167;-10
2023/01/25 03:31:08;;;;;;;18.42;11.32;;;4.10;84.10;;;;;;5073059;28;20033;-11
2023/01/25 03:33:35;;;;;;;20.48;12.50;;;4.10;84.20;;;;;;5073259;28;20020;-11
2023/01/25 03:36:02;;;;;;;19.67;12.63;;;4.10;84.20;;;;;;5072852;28;20577;-11
2023/01/25 03:38:28;;;;;;;18.15;11.93;;;4.10;84.10;;;;;;5072880;28;20063;-11
2023/01/25 03:40:54;;;;;;;16.33;9.95;;;4.10;84.10;;;;;;5072535;28;20027;-11
2023/01/25 03:43:20;;;;;;;21.75;12.82;;;4.10;84.20;;;;;;5072753;28;20115;-10
2023/01/25 03:45:58;;;;;;;16.75;11.35;;;4.10;84.30;;;;;;5073448;28;20036;-11
2023/01/25 03:48:25;;;;;;;21.20;12.77;;;4.10;84.50;;;;;;5072798;28;20388;-11
2023/01/25 03:50:53;;;;;;;19.95;12.48;;;4.10;84.50;;;;;;5072821;28;20199;-10
2023/01/25 03:53:28;;;;;;;18.42;11.30;;;4.10;84.30;;;;;;5072678;28;20032;-12
2023/01/25 03:55:58;;;;;;;17.48;10.48;;;4.10;84.20;;;;;;5072992;28;20029;-12
2023/01/25 03:58:25;;;;;;;13.23;8.68;;;4.10;84.10;;;;;;5071441;28;20024;-11
2023/01/25 04:00:53;;;;;;;19.98;11.77;;;4.00;83.90;;;;;;5072502;28;20554;-12
2023/01/25 04:03:20;;;;;;;17.13;10.85;;;4.00;83.90;;;;;;5072664;28;20025;-11
2023/01/25 04:05:46;;;;;;;18.67;11.55;;;4.00;83.90;;;;;;5072554;28;20419;-12
2023/01/25 04:08:13;;;;;;;18.80;11.63;;;3.90;83.90;;;;;;5072260;28;20322;-11
2023/01/25 04:10:39;;;;;;;16.65;10.18;;;3.90;83.90;;;;;;5072495;28;20043;-11
2023/01/25 04:13:05;;;;;;;16.65;11.35;;;3.90;83.90;;;;;;5072385;28;20031;-12
2023/01/25 04:15:31;;;;;;;18.55;10.90;;;3.90;83.90;;;;;;5072903;28;20024;-11
2023/01/25 04:17:57;;;;;;;17.77;10.63;;;3.80;83.90;;;;;;5071216;28;20036;-11
2023/01/25 04:20:23;;;;;;;15.77;10.55;;;3.80;83.90;;;;;;5072589;28;20024;-11
2023/01/25 04:22:49;;;;;;;15.50;9.55;;;3.80;84.00;;;;;;5072579;28;20029;-12
2023/01/25 04:25:15;;;;;;;17.13;10.57;;;3.80;84.00;;;;;;5072183;28;20051;-12
2023/01/25 04:27:41;;;;;;;17.20;10.55;;;3.70;84.00;;;;;;5072631;28;20104;-12
2023/01/25 04:30:07;;;;;;;12.52;7.72;;;3.70;84.10;;;;;;5072640;28;20129;-12
2023/01/25 04:32:37;;;;;;;18.48;10.18;;;3.80;84.00;;;;;;5072298;28;20044;-12
2023/01/25 04:35:03;;;;;;;15.13;9.18;;;3.70;84.00;;;;;;5071804;28;20124;-11
2023/01/25 04:37:29;;;;;;;15.25;9.23;;;3.70;84.00;;;;;;5072444;28;20396;-11
2023/01/25 04:39:55;;;;;;;13.80;8.30;;;3.70;84.00;;;;;;5072171;28;20039;-11
2023/01/25 04:42:21;;;;;;;12.30;8.05;;;3.60;83.90;;;;;;5072205;28;20024;-12
2023/01/25 04:44:47;;;;;;;15.27;8.65;;;3.70;84.00;;;;;;5071944;28;20035;-12
2023/01/25 04:47:13;;;;;;;14.93;8.27;;;3.60;84.10;;;;;;5072301;28;20150;-11
2023/01/25 04:49:39;;;;;;;14.88;8.85;;;3.70;84.00;;;;;;5072376;28;20029;-12
2023/01/25 04:52:05;;;;;;;12.63;8.50;;;3.70;84.00;;;;;;5072234;28;20024;-12
2023/01/25 04:54:31;;;;;;;13.95;8.77;;;3.60;84.00;;;;;;5072216;28;20070;-11
2023/01/25 04:56:57;;;;;;;13.35;7.95;;;3.70;84.00;;;;;;5071857;28;20029;-12
2023/01/25 04:59:23;;;;;;;17.67;10.48;;;3.70;83.90;;;;;;5072160;28;20025;-11
2023/01/25 05:01:49;;;;;;;15.43;9.45;;;3.70;83.80;;;;;;5071989;28;20111;-11
2023/01/25 05:04:15;;;;;;;19.70;11.23;;;3.70;83.70;;;;;;5072159;28;20028;-11
2023/01/25 05:06:41;;;;;;;12.70;8.30;;;3.70;83.80;;;;;;5072856;28;20025;-12
2023/01/25 05:09:08;;;;;;;16.58;10.15;;;3.70;83.80;;;;;;5071637;28;20503;-12
2023/01/25 05:11:34;;;;;;;17.40;9.80;;;3.60;83.90;;;;;;5071787;28;20480;-12
2023/01/25 05:14:00;;;;;;;15.55;9.10;;;3.60;83.80;;;;;;5072926;28;20025;-11
2023/01/25 05:16:26;;;;;;;14.73;8.10;;;3.50;83.90;;;;;;5071988;28;20029;-11
2023/01/25 05:18:54;;;;;;;12.75;7.88;;;3.50;83.90;;;;;;5073143;28;20058;-11
2023/01/25 05:24:04;;;;;;;14.02;8.30;;;3.50;83.90;;;;;;5075675;28;20055;-11
2023/01/25 05:29:14;;;;;;;16.33;9.35;;;3.50;83.90;;;;;;5075714;28;20384;-12
2023/01/25 05:31:40;;;;;;;17.10;10.70;;;3.50;83.90;;;;;;5075277;28;20029;-11
2023/01/25 05:34:07;;;;;;;17.33;9.98;;;3.40;83.80;;;;;;5075042;28;20480;-11
2023/01/25 05:36:33;;;;;;;18.42;10.48;;;3.40;84.00;;;;;;5075242;28;20544;-12
2023/01/25 05:38:59;;;;;;;16.30;10.23;;;3.30;83.90;;;;;;5075329;28;20033;-11
2023/01/25 05:41:25;;;;;;;19.55;11.65;;;3.30;83.90;;;;;;5073998;28;20028;-11
2023/01/25 05:43:51;;;;;;;18.95;11.10;;;3.30;84.00;;;;;;5075563;28;20028;-11
2023/01/25 05:46:17;;;;;;;17.08;10.32;;;3.30;84.50;;;;;;5075246;28;20070;-12
2023/01/25 05:48:43;;;;;;;19.08;11.90;;;3.30;84.60;;;;;;5075846;28;20111;-12
2023/01/25 05:51:09;;;;;;;20.98;12.25;;;3.30;84.50;;;;;;5074799;28;20035;-13
2023/01/25 05:53:35;;;;;;;19.92;10.93;;;3.30;84.30;;;;;;5074945;28;20115;-12
2023/01/25 05:56:09;;;;;;;16.15;9.20;;;3.30;84.30;;;;;;5074806;28;20027;-11
2023/01/25 05:58:36;;;;;;;15.18;8.95;;;3.30;84.40;;;;;;5075193;28;20039;-11
2023/01/25 06:01:03;;;;;;;23.88;12.23;;;3.40;84.20;;;;;;5074585;28;20029;-10
2023/01/25 06:03:29;;;;;;;19.58;12.02;;;3.40;84.30;;;;;;5074740;28;20031;-11
2023/01/25 06:06:02;;;;;;;25.15;14.32;;;3.40;84.30;;;;;;5075301;28;20488;-11
2023/01/25 06:08:29;;;;;;;22.58;13.43;;;3.40;84.20;;;;;;5074753;28;20107;-10
2023/01/25 06:10:55;;;;;;;20.02;12.30;;;3.30;84.30;;;;;;5074436;28;20024;-11
2023/01/25 06:13:21;;;;;;;27.75;16.58;;;3.30;84.30;;;;;;5074839;28;20024;-12
2023/01/25 06:15:52;;;;;;;30.27;16.35;;;3.30;84.30;;;;;;5073290;28;20032;-12
2023/01/25 06:18:18;;;;;;;26.13;13.73;;;3.40;84.40;;;;;;5075143;28;20036;-12
2023/01/25 06:20:44;;;;;;;23.95;13.80;;;3.40;84.70;;;;;;5074759;28;20032;-11
2023/01/25 06:23:10;;;;;;;22.52;13.90;;;3.40;84.90;;;;;;5074434;28;20040;-12
2023/01/25 06:25:36;;;;;;;23.95;13.20;;;3.40;84.70;;;;;;5074602;28;20051;-11
2023/01/25 06:28:02;;;;;;;20.90;12.50;;;3.40;84.70;;;;;;5074573;28;20119;-22
2023/01/25 06:30:27;;;;;;;19.15;12.38;;;3.40;84.60;;;;;;5073196;28;20025;-12
2023/01/25 06:32:53;;;;;;;21.10;12.55;;;3.50;84.50;;;;;;5073999;28;20046;-10
2023/01/25 06:35:19;;;;;;;20.65;12.13;;;3.50;84.40;;;;;;5073964;28;20133;-11
2023/01/25 06:37:45;;;;;;;20.73;12.20;;;3.50;84.40;;;;;;5074314;28;20385;-12
2023/01/25 06:40:11;;;;;;;17.73;10.85;;;3.50;84.40;;;;;;5072920;28;20075;-11
2023/01/25 06:42:37;;;;;;;18.17;10.65;;;3.50;84.40;;;;;;5074435;28;20101;-11
2023/01/25 06:45:04;;;;;;;19.85;11.55;;;3.50;84.40;;;;;;5073672;28;20083;-12
2023/01/25 06:47:30;;;;;;;17.73;10.65;;;3.50;84.30;;;;;;5072577;28;20012;-12
2023/01/25 06:49:56;;;;;;;19.48;11.55;;;3.40;84.30;;;;;;5073886;28;20111;-12
2023/01/25 06:52:21;;;;;;;18.65;10.93;;;3.50;84.40;;;;;;5073724;28;20150;-12
2023/01/25 06:54:47;;;;;;;15.82;10.20;;;3.50;84.50;;;;;;5073500;28;20021;-11
2023/01/25 06:57:13;;;;;;;16.92;9.52;;;3.50;84.60;;;;;;5073872;28;20017;-13
2023/01/25 06:59:39;;;;;;;21.40;12.02;;;3.60;84.40;;;;;;5073690;28;20028;-12
2023/01/25 07:02:05;;;;;;;21.95;13.85;;;3.60;84.40;;;;;;5072643;28;20024;-12
2023/01/25 07:04:31;;;;;;;20.40;13.07;;;3.60;84.30;;;;;;5073811;28;20048;-12
2023/01/25 07:06:57;;;;;;;23.10;14.18;;;3.50;84.30;;;;;;5073302;28;20027;-13
2023/01/25 07:09:23;;;;;;;23.00;14.27;;;3.50;84.40;;;;;;5073730;28;20024;-12
2023/01/25 07:11:50;;;;;;;20.15;12.77;;;3.50;84.70;;;;;;5073696;28;20033;-12
2023/01/25 07:14:16;;;;;;;23.13;12.18;;;3.60;84.90;;;;;;5073321;28;20419;-11
2023/01/25 07:16:41;;;;;;;21.52;12.43;;;3.60;84.90;;;;;;5073278;28;20476;-12
2023/01/25 07:19:12;;;;;;;21.95;12.80;;;3.60;84.90;;;;;;5073107;28;20024;-12
2023/01/25 07:21:38;;;;;;;21.33;11.95;;;3.70;84.90;;;;;;5073536;28;20043;-11
2023/01/25 07:24:04;;;;;;;20.45;11.93;;;3.90;84.70;;;;;;5073895;28;20376;-12
2023/01/25 07:26:31;;;;;;;21.88;14.00;;;4.00;84.90;;;;;;5073310;28;20029;-12
2023/01/25 07:28:58;;;;;;;24.60;13.45;;;4.20;85.00;;;;;;5072875;28;20559;-12
2023/01/25 07:31:24;;;;;;;17.77;11.50;;;4.40;85.10;;;;;;5073325;28;20495;-12
2023/01/25 07:33:52;;;;;;;22.48;13.48;;;4.60;85.10;;;;;;5073089;28;20012;-11
2023/01/25 07:36:19;;;;;;;26.13;14.00;;;4.70;84.90;;;;;;5072928;28;20024;-11
2023/01/25 07:38:45;;;;;;;25.40;15.10;;;4.80;84.70;;;;;;5072736;28;20020;-15
2023/01/25 07:41:11;;;;;;;27.45;17.90;;;4.80;84.50;;;;;;5072894;28;20036;-12
2023/01/25 07:43:38;;;;;;;25.80;15.30;;;4.80;84.40;;;;;;5072767;28;20469;-12
2023/01/25 07:46:06;;;;;;;21.15;13.43;;;4.90;84.40;;;;;;5073127;28;20027;-11
2023/01/25 07:48:33;;;;;;;24.08;14.73;;;5.00;84.50;;;;;;5072763;28;20025;-12
2023/01/25 07:53:46;;;;;;;22.55;13.52;;;5.40;84.10;;;;;;5073245;28;20042;-11
2023/01/25 07:56:12;;;;;;;21.30;13.15;;;5.50;83.80;;;;;;5072591;28;20504;-12
2023/01/25 07:58:39;;;;;;;20.58;12.73;;;5.60;83.80;;;;;;5071563;28;20131;-12
2023/01/25 08:01:13;;;;;;;22.60;12.98;;;5.70;83.40;;;;;;5072388;28;20484;-12
2023/01/25 08:03:39;;;;;;;21.98;12.60;;;5.90;83.50;;;;;;5071377;28;20028;-12
2023/01/25 08:06:06;;;;;;;23.35;13.30;;;5.90;83.30;;;;;;5072814;28;20024;-12
2023/01/25 08:08:34;;;;;;;18.23;11.75;;;6.00;83.00;;;;;;5072729;28;20025;-12
2023/01/25 08:11:08;;;;;;;20.75;12.07;;;6.10;82.90;;;;;;5072542;28;20096;-12
2023/01/25 08:13:34;;;;;;;20.35;11.75;;;6.10;82.60;;;;;;5072787;28;20039;-12
2023/01/25 08:16:00;;;;;;;18.95;10.48;;;6.20;82.50;;;;;;5072768;28;20025;-11
2023/01/25 08:18:26;;;;;;;16.10;10.85;;;6.20;82.50;;;;;;5072327;28;20498;-11
2023/01/25 08:20:52;;;;;;;17.27;10.95;;;6.40;82.40;;;;;;5070989;28;20025;-11
2023/01/25 08:23:19;;;;;;;19.00;10.90;;;6.50;82.50;;;;;;5072370;28;20532;-12
2023/01/25 08:25:45;;;;;;;19.48;11.18;;;6.60;82.30;;;;;;5072254;28;20031;-12
2023/01/25 08:28:11;;;;;;;17.05;10.82;;;6.70;81.90;;;;;;5072703;28;20028;-13
2023/01/25 08:30:37;;;;;;;19.17;10.75;;;6.90;82.10;;;;;;5072411;28;20086;-11
2023/01/25 08:33:03;;;;;;;18.95;10.18;;;7.00;81.80;;;;;;5071030;28;20070;-11
2023/01/25 08:35:28;;;;;;;17.90;10.80;;;7.20;81.50;;;;;;5072057;28;20416;-12
2023/01/25 08:37:54;;;;;;;16.17;9.38;;;7.30;81.40;;;;;;5072471;28;20388;-11
2023/01/25 08:40:20;;;;;;;20.35;12.63;;;7.50;81.20;;;;;;5072307;28;20032;-12
2023/01/25 08:42:47;;;;;;;18.17;11.20;;;7.70;81.10;;;;;;5071960;28;20127;-12
2023/01/25 08:45:13;;;;;;;18.40;10.82;;;7.80;79.70;;;;;;5072876;28;20035;-12
2023/01/25 08:47:39;;;;;;;14.50;9.18;;;7.90;80.00;;;;;;5072185;28;20021;-12
2023/01/25 08:50:05;;;;;;;14.70;9.13;;;8.00;80.00;;;;;;5072097;28;20025;-12
2023/01/25 08:52:31;;;;;;;14.68;9.38;;;8.20;79.60;;;;;;5072276;28;20119;-10
2023/01/25 08:54:57;;;;;;;15.68;9.70;;;8.30;79.50;;;;;;5075034;28;20631;-12
2023/01/25 08:57:23;;;;;;;18.25;10.30;;;8.40;78.80;;;;;;5074664;28;20029;-10
2023/01/25 08:59:49;;;;;;;15.07;8.65;;;8.60;78.70;;;;;;5076180;28;20028;-11
2023/01/25 09:02:15;;;;;;;14.68;8.50;;;8.70;78.70;;;;;;5075825;28;20028;-11
2023/01/25 09:04:40;;;;;;;16.55;7.88;;;8.90;78.30;;;;;;5075872;28;20016;-12
2023/01/25 09:07:06;;;;;;;14.63;8.18;;;9.00;77.70;;;;;;5075549;28;20024;-12
2023/01/25 09:09:32;;;;;;;13.68;8.13;;;9.10;75.70;;;;;;5076327;28;20023;-12
2023/01/25 09:11:58;;;;;;;13.60;7.88;;;9.20;76.30;;;;;;5075559;28;20028;-12
2023/01/25 09:14:24;;;;;;;13.07;7.65;;;9.30;74.30;;;;;;5075594;28;20112;-12
2023/01/25 09:16:50;;;;;;;13.48;7.63;;;9.40;74.90;;;;;;5075604;28;20027;-12
2023/01/25 09:19:16;;;;;;;16.10;8.10;;;9.50;74.40;;;;;;5075514;28;20052;-12
2023/01/25 09:21:41;;;;;;;14.95;8.13;;;9.70;73.80;;;;;;5075555;28;20090;-12
2023/01/25 09:24:13;;;;;;;14.25;7.90;;;9.70;73.80;;;;;;5074371;28;20029;-12
2023/01/25 09:26:41;;;;;;;13.73;7.45;;;9.90;74.60;;;;;;5075330;28;20518;-11
2023/01/25 09:29:09;;;;;;;15.43;8.20;;;10.00;72.90;;;;;;5073867;28;20503;-11
2023/01/25 09:31:42;;;;;;;12.05;7.38;;;10.20;73.20;;;;;;5075719;28;20032;-11
2023/01/25 09:34:10;;;;;;;11.50;6.90;;;10.40;72.80;;;;;;5075068;28;20052;-11
2023/01/25 09:36:37;;;;;;;13.65;7.65;;;10.50;72.60;;;;;;5075077;28;20265;-11
2023/01/25 09:39:03;;;;;;;13.07;7.93;;;10.80;73.10;;;;;;5075257;28;20537;-11
2023/01/25 09:41:39;;;;;;;13.32;8.15;;;10.90;72.00;;;;;;5074936;28;20496;-11
2023/01/25 09:44:23;;;;;;;11.93;7.38;;;11.00;71.10;;;;;;5075407;28;20154;-11
2023/01/25 09:46:53;;;;;;;15.13;9.07;;;11.10;68.20;;;;;;5075072;28;20060;-11
2023/01/25 09:49:56;;;;;;;14.95;9.18;;;11.20;65.60;;;;;;5075263;28;20039;-10
2023/01/25 09:52:53;;;;;;;14.95;7.82;;;11.20;67.20;;;;;;5075273;28;20059;-12
2023/01/25 09:55:23;;;;;;;14.10;8.25;;;11.00;68.00;;;;;;5074763;28;20028;-11
2023/01/25 09:57:52;;;;;;;14.75;8.65;;;10.90;68.20;;;;;;5075129;28;20028;-10
2023/01/25 10:00:33;;;;;;;16.02;8.73;;;10.90;64.80;;;;;;5075100;28;20453;-11
2023/01/25 10:03:19;;;;;;;14.40;8.80;;;10.90;67.80;;;;;;5074511;28;20029;-10
2023/01/25 10:05:48;;;;;;;16.10;9.13;;;11.00;65.10;;;;;;5074944;28;20135;-11
2023/01/25 10:08:41;;;;;;;13.45;8.00;;;11.10;62.20;;;;;;5074573;28;20023;-12
2023/01/25 10:11:18;;;;;;;12.73;7.32;;;11.10;62.90;;;;;;5074379;28;20086;-10
2023/01/25 10:13:44;;;;;;;14.15;7.18;;;11.00;60.30;;;;;;5074503;28;20024;-11
2023/01/25 10:16:18;;;;;;;13.80;7.75;;;11.00;63.90;;;;;;5075025;28;20035;-10
2023/01/25 10:18:56;;;;;;;16.33;8.32;;;11.00;64.90;;;;;;5074339;28;20041;-10
2023/01/25 10:21:31;;;;;;;12.45;7.47;;;11.10;62.00;;;;;;5074373;28;20036;-11
2023/01/25 10:24:30;;;;;;;16.40;8.48;;;11.30;61.90;;;;;;5074368;28;20020;-11
2023/01/25 10:27:02;;;;;;;11.52;6.85;;;11.50;62.70;;;;;;5074135;28;20412;-10
2023/01/25 10:29:32;;;;;;;13.18;6.75;;;11.90;61.20;;;;;;5074452;28;20407;-12
2023/01/25 10:32:21;;;;;;;11.80;6.88;;;12.10;61.00;;;;;;5074230;28;20029;-10
2023/01/25 10:34:49;;;;;;;16.75;7.07;;;12.20;59.20;;;;;;5073810;28;20137;-11
2023/01/25 10:37:26;;;;;;;13.18;6.95;;;12.30;58.30;;;;;;5074311;28;20027;-11
2023/01/25 10:40:10;;;;;;;11.60;6.90;;;12.50;57.10;;;;;;5072836;28;20029;-10
2023/01/25 10:42:43;;;;;;;13.80;7.15;;;12.50;55.20;;;;;;5074171;28;20027;-10
2023/01/25 10:45:16;;;;;;;11.82;6.10;;;12.40;57.20;;;;;;5073836;28;20029;-11
2023/01/25 10:47:49;;;;;;;11.85;6.82;;;12.50;56.80;;;;;;5074211;28;20024;-11
2023/01/25 10:50:45;;;;;;;11.68;6.88;;;12.50;55.80;;;;;;5074934;28;20170;-10
2023/01/25 10:53:20;;;;;;;12.27;7.03;;;12.60;55.60;;;;;;5074120;28;20039;-12
2023/01/25 10:56:01;;;;;;;12.30;6.63;;;12.80;56.60;;;;;;5073747;28;20518;-12
2023/01/25 10:58:40;;;;;;;11.05;5.80;;;13.10;54.90;;;;;;5073902;28;20067;-12
2023/01/25 11:01:11;;;;;;;11.50;6.22;;;13.20;55.20;;;;;;5073774;28;20037;-11
2023/01/25 11:03:40;;;;;;;11.40;6.03;;;13.10;52.10;;;;;;5073593;28;20064;-12
2023/01/25 11:06:08;;;;;;;11.38;6.25;;;12.90;54.60;;;;;;5073583;28;20066;-12
2023/01/25 11:08:39;;;;;;;12.38;6.75;;;12.90;56.20;;;;;;5073529;28;20124;-11
2023/01/25 11:11:34;;;;;;;11.15;6.75;;;13.20;55.10;;;;;;5073151;28;20048;-13
2023/01/25 11:13:59;;;;;;;10.70;6.22;;;13.00;51.80;;;;;;5072100;28;20036;-12
2023/01/25 11:16:33;;;;;;;12.00;6.68;;;12.90;53.10;;;;;;5072986;28;20399;-12
2023/01/25 11:19:01;;;;;;;11.57;6.07;;;12.90;53.60;;;;;;5073131;28;20078;-10
2023/01/25 11:21:32;;;;;;;13.20;6.88;;;12.90;54.80;;;;;;5073174;28;20040;-11
2023/01/25 11:24:08;;;;;;;12.90;6.57;;;13.00;54.40;;;;;;5073198;28;20115;-11
2023/01/25 11:26:35;;;;;;;11.88;5.88;;;13.20;55.00;;;;;;5073336;28;20036;-10
2023/01/25 11:29:21;;;;;;;12.10;6.60;;;13.20;52.90;;;;;;5073169;28;20025;-12
2023/01/25 11:31:53;;;;;;;13.60;7.82;;;13.40;51.20;;;;;;5073160;28;20036;-11
2023/01/25 11:34:25;;;;;;;13.55;7.38;;;13.30;50.30;;;;;;5072617;28;20052;-11
2023/01/25 11:37:09;;;;;;;11.38;6.47;;;13.40;52.60;;;;;;5072627;28;20032;-9
2023/01/25 11:39:48;;;;;;;12.48;6.63;;;13.50;52.00;;;;;;5073274;28;20077;-12
2023/01/25 11:42:41;;;;;;;11.82;6.97;;;13.50;50.80;;;;;;5072858;28;20025;-11
2023/01/25 11:45:31;;;;;;;11.80;7.00;;;13.70;52.50;;;;;;5072971;28;20029;-11
2023/01/25 11:48:35;;;;;;;13.32;6.50;;;13.80;50.40;;;;;;5073149;28;20025;-11
2023/01/25 11:51:19;;;;;;;10.07;5.90;;;13.70;51.60;;;;;;5072586;28;20032;-11
2023/01/25 11:54:11;;;;;;;9.57;6.00;;;13.90;50.00;;;;;;5072732;28;20028;-12
2023/01/25 11:56:50;;;;;;;11.00;6.03;;;13.60;48.60;;;;;;5070442;28;20035;-12
2023/01/25 11:59:43;;;;;;;11.25;6.30;;;13.40;49.90;;;;;;5072930;28;20435;-11
2023/01/25 12:02:49;;;;;;;11.50;6.35;;;13.40;51.20;;;;;;5072946;28;20033;-11
2023/01/25 12:05:27;;;;;;;12.77;6.28;;;13.50;50.90;;;;;;5072921;28;20035;-12
2023/01/25 12:08:16;;;;;;;12.07;6.18;;;13.60;50.20;;;;;;5071323;28;20060;-11
2023/01/25 12:11:03;;;;;;;11.32;6.53;;;13.60;51.40;;;;;;5072438;28;20031;-12
2023/01/25 12:13:46;;;;;;;11.43;6.53;;;13.60;50.10;;;;;;5072790;28;20086;-11
2023/01/25 12:16:21;;;;;;;11.57;6.57;;;13.50;51.00;;;;;;5072906;28;20108;-12
2023/01/25 12:19:13;;;;;;;11.10;6.47;;;13.60;50.40;;;;;;5072332;28;20163;-11
2023/01/25 12:21:54;;;;;;;11.73;6.75;;;13.80;49.80;;;;;;5072463;28;20039;-13
2023/01/25 12:24:36;;;;;;;12.25;6.00;;;13.50;50.20;;;;;;5072401;28;20563;-12
2023/01/25 12:27:07;;;;;;;12.80;6.30;;;13.30;50.60;;;;;;5072081;28;20492;-12
2023/01/25 12:29:41;;;;;;;10.73;6.25;;;13.50;51.10;;;;;;5075048;28;20024;-12
2023/01/25 12:32:39;;;;;;;10.18;5.82;;;13.70;51.20;;;;;;5076542;28;20059;-11
2023/01/25 12:35:23;;;;;;;11.73;5.90;;;13.80;48.60;;;;;;5076633;28;20055;-12
2023/01/25 12:37:55;;;;;;;11.30;6.40;;;13.70;49.60;;;;;;5076474;28;20028;-12
2023/01/25 12:41:03;;;;;;;11.93;7.00;;;13.40;49.40;;;;;;5076615;28;20029;-12
2023/01/25 12:43:47;;;;;;;11.65;6.28;;;13.40;50.00;;;;;;5034077;28;20022;-12
2023/01/25 12:46:44;;;;;;;10.55;6.28;;;13.30;50.10;;;;;;5034352;28;20032;-12
2023/01/25 12:49:27;;;;;;;10.23;6.10;;;13.20;51.60;;;;;;5076190;28;20434;-12
2023/01/25 12:51:58;;;;;;;12.32;6.82;;;12.90;50.80;;;;;;5076207;28;20020;-12
2023/01/25 12:54:32;;;;;;;11.88;6.65;;;12.90;51.40;;;;;;5076448;28;20096;-12
2023/01/25 12:57:15;;;;;;;;;;;12.90;52.30;;;;;;5076363;28;20040;-11
2023/01/25 12:59:58;;;;;;;12.05;6.63;;;13.20;51.60;;;;;;5076355;28;19935;-11
2023/01/25 13:02:52;;;;;;;13.57;6.72;;;13.50;50.80;;;;;;5076197;28;20032;-11